createdAt,value
2023-03-06T00:00:54.095Z,99.9
2023-03-06T00:02:54.005Z,99.9
2023-03-06T00:04:53.912Z,99.9
2023-03-06T00:06:53.948Z,99.9
2023-03-06T00:08:53.715Z,99.9
2023-03-06T00:10:57.176Z,99.9
2023-03-06T00:14:56.931Z,99.9
2023-03-06T00:15:58.639Z,99.9
2023-03-06T00:17:58.517Z,99.9
2023-03-06T00:19:58.383Z,99.9
2023-03-06T00:21:58.412Z,99.9
2023-03-06T00:24:01.920Z,99.9
2023-03-06T00:26:01.739Z,99.9
2023-03-06T00:28:01.651Z,99.9
2023-03-06T00:30:01.545Z,99.9
2023-03-06T00:32:01.430Z,99.9
2023-03-06T00:34:01.320Z,99.9
2023-03-06T00:36:01.207Z,99.9
2023-03-06T00:38:04.586Z,99.9
2023-03-06T00:42:04.406Z,99.9
2023-03-06T00:44:04.305Z,99.9
2023-03-06T00:46:04.257Z,99.9
2023-03-06T00:48:04.092Z,99.9
2023-03-06T00:52:07.356Z,99.9
2023-03-06T00:54:07.271Z,99.9
2023-03-06T00:56:07.168Z,99.9
2023-03-06T00:58:07.084Z,99.9
2023-03-06T01:06:10.127Z,99.9
2023-03-06T01:08:10.061Z,99.9
2023-03-06T01:10:10.110Z,99.9
2023-03-06T01:11:11.661Z,99.9
2023-03-06T01:13:11.558Z,99.9
2023-03-06T01:15:11.455Z,99.9
2023-03-06T01:27:14.348Z,99.9
2023-03-06T01:29:14.257Z,99.9
2023-03-06T01:31:14.194Z,99.9
2023-03-06T01:33:17.521Z,99.9
2023-03-06T01:41:17.199Z,99.9
2023-03-06T01:43:17.107Z,99.9
2023-03-06T01:45:17.017Z,99.9
2023-03-06T01:47:20.424Z,99.9
2023-03-06T01:49:20.263Z,99.9
2023-03-06T01:51:20.202Z,99.9
2023-03-06T01:53:20.176Z,99.9
2023-03-06T01:55:20.018Z,99.9
2023-03-06T01:57:19.934Z,99.9
2023-03-06T02:06:24.728Z,99.9
2023-03-06T02:08:24.690Z,99.9
2023-03-06T02:10:24.530Z,99.9
2023-03-06T02:12:24.451Z,99.9
2023-03-06T02:14:27.841Z,99.9
2023-03-06T02:16:27.759Z,99.9
2023-03-06T02:18:27.628Z,99.9
2023-03-06T02:20:27.535Z,99.9
2023-03-06T02:26:28.826Z,99.9
2023-03-06T02:30:32.171Z,99.9
2023-03-06T02:32:32.030Z,99.9
2023-03-06T02:34:32.303Z,99.9
2023-03-06T02:36:32.173Z,99.9
2023-03-06T02:40:32.020Z,99.9
2023-03-06T02:46:35.232Z,99.9
2023-03-06T02:48:35.148Z,99.9
2023-03-06T02:50:35.028Z,99.9
2023-03-06T02:54:34.819Z,99.9
2023-03-06T02:56:38.231Z,99.9
2023-03-06T02:58:38.115Z,99.9
2023-03-06T03:00:39.429Z,99.9
2023-03-06T03:02:40.469Z,99.9
2023-03-06T03:04:40.421Z,99.9
2023-03-06T03:06:40.277Z,99.9
2023-03-06T03:09:00.089Z,99.9
2023-03-06T03:10:59.980Z,99.9
2023-03-06T03:12:59.889Z,99.9
2023-03-06T03:17:03.164Z,99.9
2023-03-06T03:19:03.029Z,99.9
2023-03-06T03:21:02.924Z,99.9
2023-03-06T03:23:02.810Z,99.9
2023-03-06T03:33:05.849Z,99.9
2023-03-06T03:37:05.679Z,99.9
2023-03-06T03:41:05.483Z,99.9
2023-03-06T03:43:08.817Z,99.9
2023-03-06T03:47:08.653Z,99.9
2023-03-06T03:49:08.557Z,99.9
2023-03-06T03:57:11.696Z,99.9
2023-03-06T04:01:11.525Z,99.9
2023-03-06T04:02:13.220Z,99.9
2023-03-06T04:04:13.103Z,99.9
2023-03-06T04:06:13.012Z,99.9
2023-03-06T04:08:12.929Z,99.9
2023-03-06T04:10:16.327Z,99.9
2023-03-06T04:12:16.216Z,99.9
2023-03-06T04:14:16.145Z,99.9
2023-03-06T04:16:16.056Z,99.9
2023-03-06T04:18:15.938Z,99.9
2023-03-06T04:20:15.869Z,99.9
2023-03-06T04:22:15.743Z,99.9
2023-03-06T04:24:19.173Z,99.9
2023-03-06T04:26:19.029Z,99.9
2023-03-06T04:28:18.946Z,99.9
2023-03-06T04:30:18.857Z,99.9
2023-03-06T04:32:21.366Z,99.9
2023-03-06T04:34:18.634Z,99.9
2023-03-06T04:36:18.558Z,99.9
2023-03-06T04:38:22.132Z,99.9
2023-03-06T04:40:21.850Z,99.9
2023-03-06T04:42:21.750Z,99.9
2023-03-06T04:44:21.633Z,99.9
2023-03-06T04:46:21.550Z,99.9
2023-03-06T04:48:21.449Z,99.9
2023-03-06T04:52:24.727Z,99.9
2023-03-06T04:54:24.625Z,99.9
2023-03-06T04:56:24.546Z,99.9
2023-03-06T05:05:29.383Z,99.9
2023-03-06T05:07:29.243Z,99.9
2023-03-06T05:09:29.135Z,99.9
2023-03-06T05:11:29.074Z,99.9
2023-03-06T05:13:28.977Z,99.9
2023-03-06T05:15:28.875Z,99.9
2023-03-06T05:17:28.781Z,99.9
2023-03-06T05:19:32.185Z,99.9
2023-03-06T05:21:32.098Z,99.9
2023-03-06T05:23:32.067Z,99.9
2023-03-06T05:25:31.873Z,99.9
2023-03-06T05:31:31.692Z,99.9
2023-03-06T05:33:35.032Z,99.9
2023-03-06T05:35:34.952Z,99.9
2023-03-06T05:37:34.883Z,99.9
2023-03-06T05:39:34.704Z,99.9
2023-03-06T05:41:35.245Z,99.9
2023-03-06T05:43:35.149Z,99.9
2023-03-06T05:45:35.124Z,99.9
2023-03-06T05:47:38.458Z,99.9
2023-03-06T05:51:38.248Z,99.9
2023-03-06T05:52:39.954Z,99.9
2023-03-06T05:54:39.849Z,99.9
2023-03-06T05:56:41.922Z,99.9
2023-03-06T05:58:39.656Z,99.9
2023-03-06T06:00:43.060Z,99.9
2023-03-06T06:04:42.864Z,99.9
2023-03-06T06:06:42.755Z,99.9
2023-03-06T06:08:42.652Z,99.9
2023-03-06T06:10:42.570Z,99.9
2023-03-06T06:12:42.487Z,99.9
2023-03-06T06:14:45.854Z,99.9
2023-03-06T06:16:45.734Z,99.9
2023-03-06T06:18:45.667Z,99.9
2023-03-06T06:20:45.563Z,99.9
2023-03-06T06:24:45.357Z,99.9
2023-03-06T06:26:45.247Z,99.9
2023-03-06T06:28:48.644Z,99.9
2023-03-06T06:30:48.591Z,99.9
2023-03-06T06:36:48.255Z,99.9
2023-03-06T06:38:48.179Z,99.9
2023-03-06T06:42:51.476Z,99.9
2023-03-06T06:44:51.375Z,99.9
2023-03-06T06:49:13.518Z,99.9
2023-03-06T06:53:13.212Z,99.9
2023-03-06T06:57:16.478Z,99.9
2023-03-06T07:01:16.388Z,99.9
2023-03-06T07:03:16.172Z,99.9
2023-03-06T07:05:16.083Z,99.9
2023-03-06T07:07:15.953Z,99.9
2023-03-06T07:09:19.380Z,99.9
2023-03-06T07:11:19.270Z,99.9
2023-03-06T07:13:19.142Z,99.9
2023-03-06T07:15:19.075Z,99.9
2023-03-06T07:17:18.955Z,99.9
2023-03-06T07:19:18.849Z,99.9
2023-03-06T07:21:18.741Z,99.9
2023-03-06T07:23:22.154Z,99.9
2023-03-06T07:25:22.002Z,99.9
2023-03-06T07:27:21.951Z,99.9
2023-03-06T07:29:21.838Z,99.9
2023-03-06T07:31:21.837Z,99.9
2023-03-06T07:33:21.637Z,99.9
2023-03-06T07:41:24.735Z,99.9
2023-03-06T07:42:26.438Z,99.9
2023-03-06T07:44:26.360Z,99.9
2023-03-06T07:46:26.281Z,99.9
2023-03-06T07:50:29.479Z,99.9
2023-03-06T07:52:29.390Z,99.9
2023-03-06T07:54:29.278Z,99.9
2023-03-06T07:56:29.248Z,99.9
2023-03-06T07:58:29.082Z,99.9
2023-03-06T08:00:28.951Z,99.9
2023-03-06T08:02:28.820Z,99.9
2023-03-06T08:04:32.187Z,99.9
2023-03-06T08:06:32.082Z,99.9
2023-03-06T08:14:31.503Z,99.9
2023-03-06T08:16:31.496Z,99.9
2023-03-06T08:18:34.775Z,99.9
2023-03-06T08:28:34.050Z,99.9
2023-03-06T08:32:37.293Z,99.9
2023-03-06T08:34:36.980Z,99.9
2023-03-06T08:36:36.842Z,99.9
2023-03-06T08:37:38.418Z,99.9
2023-03-06T08:39:38.116Z,99.9
2023-03-06T08:41:38.001Z,99.9
2023-03-06T08:43:38.171Z,99.9
2023-03-06T08:45:42.730Z,99.9
2023-03-06T08:47:42.426Z,99.9
2023-03-06T08:49:42.214Z,99.9
2023-03-06T08:51:42.067Z,99.9
2023-03-06T08:53:43.861Z,99.9
2023-03-06T08:55:41.781Z,99.9
2023-03-06T08:57:41.653Z,99.9
2023-03-06T08:59:44.940Z,99.9
2023-03-06T09:01:44.761Z,99.9
2023-03-06T09:03:44.586Z,99.9
2023-03-06T09:05:44.411Z,99.9
2023-03-06T09:07:44.271Z,99.9
2023-03-06T09:09:44.010Z,99.9
2023-03-06T09:13:47.078Z,99.9
2023-03-06T09:15:46.842Z,99.9
2023-03-06T09:17:46.639Z,99.9
2023-03-06T09:19:46.367Z,99.9
2023-03-06T09:21:46.085Z,99.9
2023-03-06T09:23:45.878Z,99.9
2023-03-06T09:25:45.747Z,99.9
2023-03-06T09:27:58.288Z,99.9
2023-03-06T09:29:48.794Z,99.9
2023-03-06T09:31:48.620Z,99.9
2023-03-06T09:34:50.577Z,99.7
2023-03-06T09:36:56.487Z,99.7
2023-03-06T09:52:51.432Z,93
2023-03-06T09:54:54.560Z,92.9
2023-03-06T09:58:53.971Z,91.2
2023-03-06T10:00:53.679Z,92.3
2023-03-06T10:02:53.466Z,95.9
2023-03-06T10:04:53.222Z,97.8
2023-03-06T10:06:52.840Z,97.7
2023-03-06T10:16:54.803Z,91.1
2023-03-06T10:18:54.602Z,83.5
2023-03-06T10:20:54.792Z,83.4
2023-03-06T10:23:01.231Z,90.1
2023-03-06T10:24:57.048Z,84.8
2023-03-06T10:26:56.939Z,77.5
2023-03-06T10:29:18.421Z,75.8
2023-03-06T10:31:18.180Z,75.5
2023-03-06T10:33:17.847Z,73.8
2023-03-06T10:39:20.212Z,69.2
2023-03-06T10:41:19.873Z,69.8
2023-03-06T10:43:19.495Z,77.1
2023-03-06T10:45:19.156Z,77
2023-03-06T10:47:18.805Z,77.6
2023-03-06T10:49:21.836Z,65.2
2023-03-06T10:51:21.497Z,65.2
2023-03-06T10:53:21.150Z,63.9
2023-03-06T10:55:20.772Z,63.6
2023-03-06T10:57:20.439Z,61.7
2023-03-06T10:59:20.053Z,69.8
2023-03-06T11:01:19.736Z,72.5
2023-03-06T11:05:22.995Z,72.7
2023-03-06T11:09:22.253Z,77.5
2023-03-06T11:11:36.543Z,81.3
2023-03-06T11:13:21.519Z,80.6
2023-03-06T11:17:24.150Z,79.4
2023-03-06T11:19:23.829Z,79.5
2023-03-06T11:30:27.098Z,77.7
2023-03-06T11:32:26.854Z,77.3
2023-03-06T11:34:26.464Z,76.9
2023-03-06T11:36:26.159Z,76.1
2023-03-06T11:42:25.254Z,75
2023-03-06T11:44:28.323Z,72.6
2023-03-06T11:46:28.064Z,69
2023-03-06T11:48:27.793Z,68.3
2023-03-06T11:50:27.440Z,67.3
2023-03-06T11:52:27.125Z,67.2
2023-03-06T11:54:26.834Z,66
2023-03-06T11:56:26.540Z,64.1
2023-03-06T11:58:29.589Z,63.3
2023-03-06T12:00:29.293Z,62.6
2023-03-06T12:02:28.989Z,62.4
2023-03-06T12:04:28.604Z,61.3
2023-03-06T12:06:28.243Z,60.4
2023-03-06T12:08:27.897Z,60.5
2023-03-06T12:10:27.540Z,60.5
2023-03-06T12:12:30.557Z,59.1
2023-03-06T12:17:31.279Z,63.9
2023-03-06T12:19:30.871Z,64.4
2023-03-06T12:21:31.063Z,65.8
2023-03-06T12:23:30.132Z,67.1
2023-03-06T12:25:33.157Z,69.8
2023-03-06T12:27:32.771Z,69.8
2023-03-06T12:29:32.995Z,69.7
2023-03-06T12:31:32.079Z,60.6
2023-03-06T12:37:30.927Z,64.8
2023-03-06T12:39:33.953Z,62.6
2023-03-06T12:41:33.607Z,62.7
2023-03-06T12:43:33.250Z,61.3
2023-03-06T12:45:32.923Z,61.1
2023-03-06T12:47:32.544Z,60.4
2023-03-06T12:49:33.316Z,59.1
2023-03-06T12:51:31.858Z,57.2
2023-03-06T12:53:34.868Z,55
2023-03-06T12:55:34.490Z,53.3
2023-03-06T12:57:34.158Z,53.2
2023-03-06T12:59:33.748Z,52.9
2023-03-06T13:01:33.439Z,52.6
2023-03-06T13:03:33.055Z,53.8
2023-03-06T13:09:35.318Z,55.5
2023-03-06T13:11:34.942Z,55.6
2023-03-06T13:12:36.459Z,55.8
2023-03-06T13:16:35.747Z,56.2
2023-03-06T13:20:38.436Z,56.4
2023-03-06T13:22:38.038Z,56.6
2023-03-06T13:24:37.691Z,56.7
2023-03-06T13:26:37.322Z,56.6
2023-03-06T13:28:36.956Z,57.9
2023-03-06T13:30:36.735Z,58.6
2023-03-06T13:32:36.301Z,59.5
2023-03-06T13:34:39.306Z,60.4
2023-03-06T13:36:39.887Z,60.9
2023-03-06T13:38:38.626Z,61.6
2023-03-06T13:40:38.286Z,62.3
2023-03-06T13:42:38.016Z,62.5
2023-03-06T13:44:37.660Z,62.6
2023-03-06T13:46:37.389Z,62.9
2023-03-06T13:48:44.896Z,63.5
2023-03-06T13:52:39.731Z,64.3
2023-03-06T13:54:39.414Z,64.1
2023-03-06T13:56:39.104Z,63.1
2023-03-06T13:58:38.785Z,62.4
2023-03-06T14:00:38.483Z,61.8
2023-03-06T14:02:41.607Z,60.6
2023-03-06T14:04:41.264Z,60.3
2023-03-06T14:09:00.189Z,60.7
2023-03-06T14:10:59.871Z,61.1
2023-03-06T14:12:59.609Z,61.4
2023-03-06T14:17:04.195Z,62.3
2023-03-06T14:19:02.096Z,62.7
2023-03-06T14:21:01.845Z,63
2023-03-06T14:23:01.491Z,63.8
2023-03-06T14:25:01.215Z,64.4
2023-03-06T14:27:00.935Z,64.9
2023-03-06T14:29:04.029Z,65.7
2023-03-06T14:35:06.208Z,68.4
2023-03-06T14:37:05.840Z,69.1
2023-03-06T14:39:05.564Z,69.6
2023-03-06T14:43:08.381Z,69.5
2023-03-06T14:45:08.111Z,69.6
2023-03-06T14:47:07.798Z,69.6
2023-03-06T14:49:07.543Z,70.7
2023-03-06T14:51:07.266Z,71.4
2023-03-06T14:53:06.987Z,72.3
2023-03-06T14:59:09.557Z,75.3
2023-03-06T15:01:09.302Z,75.9
2023-03-06T15:04:10.630Z,77
2023-03-06T15:08:10.082Z,77.7
2023-03-06T15:18:12.138Z,91.2
2023-03-06T15:22:11.592Z,91.4
2023-03-06T15:32:13.862Z,99.6
2023-03-06T15:34:13.669Z,99.7
2023-03-06T15:36:13.510Z,99.8
2023-03-06T15:38:16.620Z,99.9
2023-03-06T15:40:16.413Z,99.9
2023-03-06T15:42:16.253Z,99.9
2023-03-06T15:44:16.088Z,99.9
2023-03-06T15:46:15.948Z,99.9
2023-03-06T15:52:19.112Z,99.9
2023-03-06T15:54:18.790Z,99.9
2023-03-06T15:56:18.633Z,99.9
2023-03-06T15:57:20.343Z,99.9
2023-03-06T15:59:21.169Z,99.9
2023-03-06T16:01:20.122Z,99.9
2023-03-06T16:03:19.916Z,99.9
2023-03-06T16:05:23.279Z,99.9
2023-03-06T16:07:23.130Z,99.9
2023-03-06T16:09:22.997Z,99.9
2023-03-06T16:19:27.154Z,99.9
2023-03-06T16:21:25.482Z,99.9
2023-03-06T16:23:25.409Z,99.9
2023-03-06T16:25:25.237Z,99.9
2023-03-06T16:27:25.085Z,99.9
2023-03-06T16:29:24.960Z,99.9
2023-03-06T16:33:27.996Z,99.9
2023-03-06T16:35:27.804Z,99.9
2023-03-06T16:37:27.670Z,99.9
2023-03-06T16:39:27.553Z,99.9
2023-03-06T16:41:27.406Z,99.9
2023-03-06T16:45:27.129Z,99.9
2023-03-06T16:47:30.525Z,99.9
2023-03-06T16:49:30.463Z,99.9
2023-03-06T16:51:30.265Z,99.9
2023-03-06T16:52:31.940Z,99.9
2023-03-06T16:56:31.687Z,99.9
2023-03-06T16:58:31.578Z,99.9
2023-03-06T17:00:34.986Z,99.9
2023-03-06T17:02:34.846Z,99.9
2023-03-06T17:04:34.720Z,99.9
2023-03-06T17:06:34.697Z,99.9
2023-03-06T17:10:34.410Z,99.9
2023-03-06T17:12:34.259Z,99.9
2023-03-06T17:14:37.621Z,99.9
2023-03-06T17:16:37.501Z,99.9
2023-03-06T17:18:37.371Z,99.9
2023-03-06T17:20:37.240Z,99.9
2023-03-06T17:22:37.133Z,99.9
2023-03-06T17:24:37.002Z,99.9
2023-03-06T17:26:36.918Z,99.9
2023-03-06T17:28:40.277Z,99.9
2023-03-06T17:30:40.166Z,99.9
2023-03-06T17:32:40.100Z,99.9
2023-03-06T17:34:39.929Z,99.9
2023-03-06T17:36:39.788Z,99.9
2023-03-06T17:38:39.674Z,99.9
2023-03-06T17:40:39.559Z,99.9
2023-03-06T17:44:42.828Z,99.9
2023-03-06T17:46:42.818Z,99.9
2023-03-06T17:49:02.483Z,99.9
2023-03-06T17:51:02.394Z,99.9
2023-03-06T17:55:05.634Z,99.9
2023-03-06T17:57:05.476Z,99.9
2023-03-06T18:09:08.321Z,99.9
2023-03-06T18:15:07.961Z,99.9
2023-03-06T18:19:07.717Z,99.9
2023-03-06T18:21:07.578Z,99.9
2023-03-06T18:23:10.965Z,99.9
2023-03-06T18:25:10.857Z,99.9
2023-03-06T18:27:10.706Z,99.9
2023-03-06T18:29:10.606Z,99.9
2023-03-06T18:31:10.557Z,99.9
2023-03-06T18:39:13.495Z,99.9
2023-03-06T18:41:13.357Z,99.9
2023-03-06T18:44:14.925Z,99.9
2023-03-06T18:46:14.822Z,99.9
2023-03-06T18:50:18.082Z,99.9
2023-03-06T18:52:17.976Z,99.9
2023-03-06T18:54:17.850Z,99.9
2023-03-06T18:56:17.773Z,99.9
2023-03-06T18:58:17.653Z,99.9
2023-03-06T19:00:17.537Z,99.9
2023-03-06T19:02:17.417Z,99.9
2023-03-06T19:04:20.843Z,99.9
2023-03-06T19:12:20.365Z,99.9
2023-03-06T19:14:20.238Z,99.9
2023-03-06T19:16:20.140Z,99.9
2023-03-06T19:18:23.464Z,99.9
2023-03-06T19:20:23.353Z,99.9
2023-03-06T19:22:23.251Z,99.9
2023-03-06T19:32:26.220Z,99.9
2023-03-06T19:36:25.968Z,99.9
2023-03-06T19:37:27.654Z,99.9
2023-03-06T19:39:27.563Z,99.9
2023-03-06T19:41:27.444Z,99.9
2023-03-06T19:43:27.332Z,99.9
2023-03-06T19:45:30.712Z,99.9
2023-03-06T19:49:30.495Z,99.9
2023-03-06T19:51:30.435Z,99.9
2023-03-06T19:53:30.280Z,99.9
2023-03-06T19:55:30.171Z,99.9
2023-03-06T19:57:30.047Z,99.9
2023-03-06T19:59:33.466Z,99.9
2023-03-06T20:01:33.431Z,99.9
2023-03-06T20:03:33.276Z,99.9
2023-03-06T20:05:33.148Z,99.9
2023-03-06T20:07:33.062Z,99.9
2023-03-06T20:09:32.914Z,99.9
2023-03-06T20:11:32.841Z,99.9
2023-03-06T20:13:36.201Z,99.9
2023-03-06T20:15:36.117Z,99.9
2023-03-06T20:17:35.998Z,99.9
2023-03-06T20:19:35.890Z,99.9
2023-03-06T20:21:37.363Z,99.9
2023-03-06T20:23:37.215Z,99.9
2023-03-06T20:25:37.092Z,99.9
2023-03-06T20:29:40.379Z,99.9
2023-03-06T20:31:40.279Z,99.9
2023-03-06T20:34:41.907Z,99.9
2023-03-06T20:36:41.800Z,99.9
2023-03-06T20:38:41.684Z,99.9
2023-03-06T20:44:44.866Z,99.9
2023-03-06T20:46:44.769Z,99.9
2023-03-06T20:54:47.873Z,99.9
2023-03-06T20:56:47.759Z,99.9
2023-03-06T20:58:47.621Z,99.9
2023-03-06T21:00:47.540Z,99.9
2023-03-06T21:02:47.452Z,99.9
2023-03-06T21:04:47.363Z,99.9
2023-03-06T21:06:47.371Z,99.9
2023-03-06T21:08:50.579Z,99.9
2023-03-06T21:10:50.517Z,99.9
2023-03-06T21:12:50.361Z,99.9
2023-03-06T21:14:50.297Z,99.9
2023-03-06T21:16:50.186Z,99.9
2023-03-06T21:18:50.111Z,99.9
2023-03-06T21:20:49.981Z,99.9
2023-03-06T21:22:53.381Z,99.9
2023-03-06T21:24:53.283Z,99.9
2023-03-06T21:26:53.186Z,99.9
2023-03-06T21:31:15.326Z,99.9
2023-03-06T21:33:15.156Z,99.9
2023-03-06T21:35:18.542Z,99.9
2023-03-06T21:37:18.421Z,99.9
2023-03-06T21:39:18.339Z,99.9
2023-03-06T21:41:18.208Z,99.9
2023-03-06T21:43:18.096Z,99.9
2023-03-06T21:45:17.998Z,99.9
2023-03-06T21:47:17.922Z,99.9
2023-03-06T21:49:21.266Z,99.9
2023-03-06T21:51:21.163Z,99.9
2023-03-06T21:53:21.041Z,99.9
2023-03-06T21:55:20.922Z,99.9
2023-03-06T21:57:20.823Z,99.9
2023-03-06T21:59:20.724Z,99.9
2023-03-06T22:01:20.694Z,99.9
2023-03-06T22:05:23.879Z,99.9
2023-03-06T22:07:23.821Z,99.9
2023-03-06T22:09:23.645Z,99.9
2023-03-06T22:11:23.558Z,99.9
2023-03-06T22:13:23.402Z,99.9
2023-03-06T22:15:23.329Z,99.9
2023-03-06T22:17:26.676Z,99.9
2023-03-06T22:19:26.594Z,99.9
2023-03-06T22:21:26.478Z,99.9
2023-03-06T22:22:28.173Z,99.9
2023-03-06T22:24:28.042Z,99.9
2023-03-06T22:28:27.833Z,99.9
2023-03-06T22:30:31.244Z,99.9
2023-03-06T22:36:30.877Z,99.9
2023-03-06T22:38:30.751Z,99.9
2023-03-06T22:40:30.647Z,99.9
2023-03-06T22:42:30.515Z,99.9
2023-03-06T22:44:33.906Z,99.9
2023-03-06T22:46:33.784Z,99.9
2023-03-06T22:50:33.573Z,99.9
2023-03-06T22:52:33.448Z,99.9
2023-03-06T22:54:33.338Z,99.9
2023-03-06T22:56:33.207Z,99.9
2023-03-06T22:58:36.610Z,99.9
2023-03-06T23:00:36.488Z,99.9
2023-03-06T23:04:36.203Z,99.9
2023-03-06T23:10:35.840Z,99.9
2023-03-06T23:12:39.237Z,99.9
2023-03-06T23:14:39.105Z,99.9
2023-03-06T23:16:38.968Z,99.9
2023-03-06T23:17:40.641Z,99.9
2023-03-06T23:19:40.524Z,99.9
2023-03-06T23:21:40.434Z,99.9
2023-03-06T23:23:40.334Z,99.9
2023-03-06T23:29:43.360Z,99.9
2023-03-06T23:31:43.259Z,99.9
2023-03-06T23:33:43.157Z,99.9
2023-03-06T23:35:43.090Z,99.9
2023-03-06T23:37:42.935Z,99.9
2023-03-06T23:39:46.324Z,99.9
2023-03-06T23:41:46.188Z,99.9
2023-03-06T23:43:45.975Z,99.9
2023-03-06T23:51:45.550Z,99.9
2023-03-06T23:53:48.900Z,99.9
2023-03-06T23:55:48.758Z,99.9
